Time;durP1;ratioP1;P1;durP2;ratioP2;P2;SDS_P1;SDS_P2;PMS_P1;PMS_P2;Temp;Humidity;BMP_temperature;BMP_pressure;BME280_temperature;BME280_humidity;BME280_pressure;Samples;Min_cycle;Max_cycle;Signal;HPM_P1;HPM_P2
2022/03/13 00:02:18;;;;;;;3.78;3.33;;;11.80;99.90;;;;;;5061385;28;20050;-84
2022/03/13 00:04:49;;;;;;;3.42;3.00;;;11.80;99.90;;;;;;5106279;28;20043;-84
2022/03/13 00:07:25;;;;;;;3.97;2.83;;;11.80;99.90;;;;;;5085583;28;20119;-83
2022/03/13 00:09:51;;;;;;;3.97;2.88;;;11.80;99.90;;;;;;5072364;28;20036;-84
2022/03/13 00:12:29;;;;;;;3.10;2.80;;;11.70;99.90;;;;;;5075779;28;20009;-84
2022/03/13 00:14:57;;;;;;;3.15;2.85;;;11.70;99.90;;;;;;5087578;28;20542;-84
2022/03/13 00:17:30;;;;;;;5.63;2.72;;;11.70;99.90;;;;;;5080367;28;20012;-84
2022/03/13 00:20:00;;;;;;;3.50;3.15;;;11.80;99.90;;;;;;5087085;28;20052;-84
2022/03/13 00:22:27;;;;;;;2.92;2.53;;;11.80;99.90;;;;;;5073211;28;20551;-83
2022/03/13 00:24:54;;;;;;;3.55;3.25;;;11.70;99.90;;;;;;5073982;28;20063;-84
2022/03/13 00:27:19;;;;;;;3.97;3.58;;;11.70;99.90;;;;;;5073810;28;20048;-84
2022/03/13 00:29:45;;;;;;;3.22;2.92;;;11.80;99.90;;;;;;5072973;28;20495;-84
2022/03/13 00:32:10;;;;;;;3.30;3.00;;;11.70;99.90;;;;;;5075617;28;20025;-84
2022/03/13 00:34:36;;;;;;;3.50;3.20;;;11.70;99.90;;;;;;5081267;28;20530;-84
2022/03/13 00:37:02;;;;;;;3.40;3.00;;;11.60;99.90;;;;;;5076479;28;20024;-84
2022/03/13 00:39:27;;;;;;;3.10;2.80;;;11.70;99.90;;;;;;5076645;28;20024;-84
2022/03/13 00:41:53;;;;;;;4.47;3.60;;;11.70;99.90;;;;;;5080735;28;20028;-84
2022/03/13 00:44:19;;;;;;;3.30;3.00;;;11.70;99.90;;;;;;5072041;28;20052;-84
2022/03/13 00:46:44;;;;;;;3.88;3.58;;;11.60;99.90;;;;;;5072853;28;20369;-84
2022/03/13 00:49:10;;;;;;;3.90;3.20;;;11.60;99.90;;;;;;5072751;28;20499;-84
2022/03/13 00:51:36;;;;;;;3.80;2.78;;;11.70;99.90;;;;;;5072250;28;20116;-84
2022/03/13 00:54:05;;;;;;;3.20;2.90;;;11.70;99.90;;;;;;5072685;28;20086;-84
2022/03/13 00:56:31;;;;;;;5.05;3.50;;;11.70;99.90;;;;;;5072001;28;20526;-84
2022/03/13 00:58:57;;;;;;;3.25;2.95;;;11.70;99.90;;;;;;5072711;28;20398;-84
2022/03/13 01:01:23;;;;;;;3.38;3.08;;;11.70;99.90;;;;;;5073049;28;20031;-84
2022/03/13 01:03:51;;;;;;;3.72;3.40;;;11.70;99.90;;;;;;5073136;28;20036;-84
2022/03/13 01:06:20;;;;;;;3.00;2.70;;;11.70;99.90;;;;;;5072273;28;20047;-83
2022/03/13 01:08:47;;;;;;;4.40;3.55;;;11.60;99.90;;;;;;5073145;28;20040;-83
2022/03/13 01:11:14;;;;;;;3.95;3.08;;;11.60;99.90;;;;;;5074161;28;20040;-83
2022/03/13 01:13:40;;;;;;;3.92;3.42;;;11.60;99.90;;;;;;5073021;28;20109;-83
2022/03/13 01:16:34;;;;;;;2.83;2.63;;;12.10;99.90;;;;;;5072910;28;20032;-84
2022/03/13 01:19:03;;;;;;;4.05;3.20;;;11.50;99.90;;;;;;5071168;28;20041;-84
2022/03/13 01:21:31;;;;;;;3.33;3.03;;;11.50;99.90;;;;;;5076227;28;20084;-84
2022/03/13 01:24:00;;;;;;;3.47;3.05;;;11.50;99.90;;;;;;5076823;28;20028;-83
2022/03/13 01:26:25;;;;;;;3.00;2.80;;;11.50;99.90;;;;;;5075797;28;20023;-83
2022/03/13 01:28:56;;;;;;;3.75;3.05;;;11.40;99.90;;;;;;5076526;28;20491;-83
2022/03/13 01:31:24;;;;;;;3.03;2.80;;;11.40;99.90;;;;;;5077172;28;20031;-83
2022/03/13 01:33:50;;;;;;;3.33;3.08;;;11.40;99.90;;;;;;5076087;28;20123;-84
2022/03/13 01:36:15;;;;;;;3.40;2.92;;;11.40;99.90;;;;;;5075689;28;20055;-84
2022/03/13 01:38:41;;;;;;;3.20;2.90;;;11.30;99.90;;;;;;5076634;28;20032;-84
2022/03/13 01:41:10;;;;;;;3.20;2.90;;;11.30;99.90;;;;;;5075691;28;20048;-83
2022/03/13 01:43:36;;;;;;;4.00;3.30;;;11.30;99.90;;;;;;5077655;28;20480;-84
2022/03/13 01:46:03;;;;;;;3.08;2.40;;;11.20;99.90;;;;;;5076711;28;20032;-84
2022/03/13 01:48:30;;;;;;;3.30;2.97;;;11.10;99.90;;;;;;5089082;28;20036;-83
2022/03/13 01:50:56;;;;;;;5.43;3.42;;;11.10;99.90;;;;;;5096614;28;20027;-83
2022/03/13 01:53:23;;;;;;;3.08;2.80;;;11.10;99.90;;;;;;5095992;28;20021;-83
2022/03/13 01:55:49;;;;;;;2.78;2.58;;;11.00;99.90;;;;;;5095852;28;20028;-84
2022/03/13 01:58:15;;;;;;;3.10;2.80;;;11.00;99.90;;;;;;5096481;28;20048;-83
2022/03/13 02:00:41;;;;;;;2.83;2.63;;;11.00;99.90;;;;;;5095821;28;20024;-83
2022/03/13 02:03:07;;;;;;;3.03;2.45;;;11.00;99.90;;;;;;5096101;28;20092;-83
2022/03/13 02:05:34;;;;;;;2.97;2.60;;;11.00;99.90;;;;;;5095033;28;20029;-83
2022/03/13 02:08:04;;;;;;;3.45;3.13;;;11.00;99.90;;;;;;5091599;28;20033;-83
2022/03/13 02:10:30;;;;;;;2.85;2.65;;;11.00;99.90;;;;;;5094460;28;20094;-83
2022/03/13 02:13:00;;;;;;;2.60;2.40;;;11.00;99.90;;;;;;5096912;28;20032;-83
2022/03/13 02:15:29;;;;;;;2.85;2.65;;;11.00;99.90;;;;;;5088051;28;20364;-83
2022/03/13 02:18:01;;;;;;;2.80;2.60;;;11.00;99.90;;;;;;5088438;28;20037;-82
2022/03/13 02:20:29;;;;;;;4.20;2.58;;;11.00;99.90;;;;;;5095621;28;20055;-84
2022/03/13 02:23:05;;;;;;;4.13;2.75;;;11.00;99.90;;;;;;5086675;28;20025;-84
2022/03/13 02:25:34;;;;;;;2.88;2.65;;;11.00;99.90;;;;;;5076154;28;20075;-84
2022/03/13 02:28:03;;;;;;;3.28;3.00;;;11.00;99.90;;;;;;5076330;28;20044;-84
2022/03/13 02:30:29;;;;;;;3.50;3.20;;;11.00;99.90;;;;;;5074739;28;20102;-85
2022/03/13 02:32:57;;;;;;;3.22;2.92;;;11.00;99.90;;;;;;5076397;28;20029;-84
2022/03/13 02:35:23;;;;;;;2.58;2.38;;;10.90;99.90;;;;;;5075668;28;20021;-85
2022/03/13 02:37:48;;;;;;;7.63;2.88;;;10.90;99.90;;;;;;5075619;28;20035;-85
2022/03/13 02:40:22;;;;;;;3.80;2.78;;;10.90;99.90;;;;;;5076045;28;20040;-85
2022/03/13 02:42:49;;;;;;;3.08;2.80;;;10.90;99.90;;;;;;5075917;28;20039;-85
2022/03/13 02:45:32;;;;;;;4.05;3.10;;;10.90;99.90;;;;;;5076963;28;20047;-84
2022/03/13 02:48:00;;;;;;;2.95;2.47;;;10.90;99.90;;;;;;5076539;28;20476;-85
2022/03/13 02:50:26;;;;;;;2.78;2.50;;;10.80;99.90;;;;;;5075620;28;20063;-85
2022/03/13 02:52:51;;;;;;;2.70;2.50;;;10.80;99.90;;;;;;5076485;28;20025;-85
2022/03/13 02:55:17;;;;;;;3.00;2.70;;;10.80;99.90;;;;;;5077000;28;20039;-86
2022/03/13 02:57:43;;;;;;;3.20;2.90;;;10.80;99.90;;;;;;5076870;28;20031;-83
2022/03/13 03:00:09;;;;;;;3.30;3.00;;;10.80;99.90;;;;;;5076796;28;20499;-84
2022/03/13 03:02:36;;;;;;;6.78;2.97;;;10.70;99.90;;;;;;5075920;28;20025;-84
2022/03/13 03:05:06;;;;;;;3.47;3.15;;;10.80;99.90;;;;;;5074778;28;20024;-84
2022/03/13 03:07:32;;;;;;;3.40;3.10;;;10.70;99.90;;;;;;5075416;28;20021;-84
2022/03/13 03:09:58;;;;;;;3.60;3.17;;;10.60;99.90;;;;;;5075445;28;20041;-84
2022/03/13 03:12:23;;;;;;;4.60;2.88;;;10.70;99.90;;;;;;5074440;28;20075;-84
2022/03/13 03:14:49;;;;;;;3.67;3.38;;;10.60;99.90;;;;;;5074473;28;20035;-84
2022/03/13 03:17:15;;;;;;;3.85;3.45;;;10.60;99.90;;;;;;5079064;28;20024;-84
2022/03/13 03:19:43;;;;;;;5.65;3.80;;;10.50;99.90;;;;;;5077340;28;20027;-84
2022/03/13 03:22:08;;;;;;;4.57;4.18;;;10.50;99.90;;;;;;5077959;28;20020;-83
2022/03/13 03:24:34;;;;;;;5.25;4.70;;;10.50;99.90;;;;;;5081610;28;20112;-84
2022/03/13 03:27:00;;;;;;;8.43;5.55;;;10.40;99.90;;;;;;5074493;28;20039;-85
2022/03/13 03:29:28;;;;;;;5.65;5.15;;;10.40;99.90;;;;;;5073424;28;20056;-85
2022/03/13 03:31:56;;;;;;;6.63;6.03;;;10.40;99.90;;;;;;5073874;28;20040;-83
2022/03/13 03:34:24;;;;;;;6.47;5.57;;;10.40;99.90;;;;;;5074174;28;20025;-83
2022/03/13 03:36:53;;;;;;;8.85;5.85;;;10.40;99.90;;;;;;5074089;28;20032;-85
2022/03/13 03:39:20;;;;;;;7.07;5.50;;;10.30;99.90;;;;;;5073217;28;20033;-84
2022/03/13 03:41:48;;;;;;;6.53;5.93;;;10.20;99.90;;;;;;5073756;28;20070;-85
2022/03/13 03:44:14;;;;;;;7.38;6.50;;;10.30;99.90;;;;;;5073464;28;20021;-84
2022/03/13 03:46:42;;;;;;;7.70;5.97;;;10.30;99.90;;;;;;5072999;28;20021;-83
2022/03/13 03:49:07;;;;;;;6.30;5.65;;;10.30;99.90;;;;;;5072962;28;20052;-84
2022/03/13 03:51:34;;;;;;;6.30;5.60;;;10.20;99.90;;;;;;5073419;28;20032;-84
2022/03/13 03:54:00;;;;;;;8.15;6.03;;;10.30;99.90;;;;;;5080215;28;20031;-85
2022/03/13 03:56:26;;;;;;;6.15;5.43;;;10.30;99.90;;;;;;5093596;28;20047;-84
2022/03/13 03:58:52;;;;;;;5.97;5.40;;;10.20;99.90;;;;;;5093741;28;20028;-84
2022/03/13 04:01:18;;;;;;;5.72;5.20;;;10.10;99.90;;;;;;5092536;28;20016;-85
2022/03/13 04:03:44;;;;;;;5.00;4.50;;;10.10;99.90;;;;;;5094558;28;20356;-84
2022/03/13 04:06:10;;;;;;;8.35;5.40;;;9.90;99.90;;;;;;5093229;28;20052;-84
2022/03/13 04:08:36;;;;;;;8.65;5.57;;;9.90;99.90;;;;;;5108883;28;20044;-84
2022/03/13 04:11:03;;;;;;;5.57;5.03;;;9.80;99.90;;;;;;5102168;28;20103;-84
2022/03/13 04:13:28;;;;;;;5.93;5.38;;;9.80;99.90;;;;;;5094178;28;20519;-84
2022/03/13 04:15:55;;;;;;;5.85;5.20;;;9.80;99.90;;;;;;5092886;28;20024;-84
2022/03/13 04:18:23;;;;;;;7.80;4.97;;;9.80;99.90;;;;;;5105313;28;20020;-84
2022/03/13 04:20:49;;;;;;;6.22;5.05;;;9.80;99.90;;;;;;5103397;28;20108;-83
2022/03/13 04:23:15;;;;;;;6.28;4.95;;;9.80;99.90;;;;;;5106166;28;20051;-83
2022/03/13 04:25:40;;;;;;;9.70;5.28;;;9.80;99.90;;;;;;5103381;28;20081;-82
2022/03/13 04:28:08;;;;;;;5.30;4.80;;;9.80;99.90;;;;;;5094989;28;20374;-85
2022/03/13 04:30:35;;;;;;;4.78;4.30;;;9.80;99.90;;;;;;5093602;28;20425;-84
2022/03/13 04:33:01;;;;;;;5.60;5.10;;;9.80;99.90;;;;;;5093962;28;20050;-85
2022/03/13 04:35:27;;;;;;;5.68;5.18;;;9.90;99.90;;;;;;5093634;28;20551;-83
2022/03/13 04:37:52;;;;;;;5.22;4.47;;;9.90;99.90;;;;;;5094205;28;20024;-84
2022/03/13 04:40:18;;;;;;;5.13;4.68;;;9.80;99.90;;;;;;5094643;28;20120;-84
2022/03/13 04:42:44;;;;;;;5.68;5.05;;;9.90;99.90;;;;;;5093559;28;20027;-84
2022/03/13 04:45:12;;;;;;;5.93;4.97;;;9.90;99.90;;;;;;5093941;28;20388;-85
2022/03/13 04:47:37;;;;;;;5.15;4.53;;;9.90;99.90;;;;;;5093485;28;20379;-85
2022/03/13 04:50:04;;;;;;;5.32;4.82;;;9.90;99.90;;;;;;5092949;28;20057;-85
2022/03/13 04:52:29;;;;;;;6.60;5.25;;;9.90;99.90;;;;;;5094535;28;20387;-85
2022/03/13 04:54:55;;;;;;;5.80;4.82;;;9.90;99.90;;;;;;5097695;28;20032;-85
2022/03/13 04:57:20;;;;;;;6.43;5.05;;;9.90;99.90;;;;;;5097260;28;20028;-85
2022/03/13 04:59:46;;;;;;;5.65;5.05;;;9.80;99.90;;;;;;5098171;28;20464;-85
2022/03/13 05:02:12;;;;;;;5.75;5.07;;;9.80;99.90;;;;;;5097501;28;20035;-85
2022/03/13 05:04:38;;;;;;;5.45;4.85;;;9.70;99.90;;;;;;5096730;28;20434;-85
2022/03/13 05:07:06;;;;;;;5.38;4.88;;;9.70;99.90;;;;;;5096999;28;20048;-84
2022/03/13 05:09:32;;;;;;;5.55;4.95;;;9.70;99.90;;;;;;5097225;28;20048;-84
2022/03/13 05:12:00;;;;;;;5.22;4.72;;;9.70;99.90;;;;;;5096257;28;20337;-84
2022/03/13 05:14:26;;;;;;;7.20;5.50;;;9.70;99.90;;;;;;5097048;28;20027;-84
2022/03/13 05:16:51;;;;;;;5.25;4.75;;;9.70;99.90;;;;;;5096250;28;20016;-84
2022/03/13 05:19:20;;;;;;;6.57;5.63;;;9.60;99.90;;;;;;5096322;28;20032;-84
2022/03/13 05:21:46;;;;;;;6.10;5.50;;;9.60;99.90;;;;;;5097340;28;20031;-84
2022/03/13 05:24:11;;;;;;;6.45;5.82;;;9.60;99.90;;;;;;5097342;28;20024;-84
2022/03/13 05:26:37;;;;;;;8.07;5.68;;;9.50;99.90;;;;;;5096278;28;20024;-84
2022/03/13 05:29:03;;;;;;;6.55;5.82;;;9.50;99.90;;;;;;5096755;28;20121;-84
2022/03/13 05:31:28;;;;;;;6.93;6.05;;;9.40;99.90;;;;;;5096719;28;20023;-84
2022/03/13 05:33:54;;;;;;;6.75;6.05;;;9.40;99.90;;;;;;5096963;28;20020;-84
2022/03/13 05:36:20;;;;;;;7.13;6.28;;;9.40;99.90;;;;;;5096545;28;20422;-84
2022/03/13 05:38:46;;;;;;;8.45;6.78;;;9.40;99.90;;;;;;5096547;28;20024;-84
2022/03/13 05:41:12;;;;;;;11.00;7.20;;;9.40;99.90;;;;;;5097213;28;20065;-84
2022/03/13 05:43:38;;;;;;;7.18;6.47;;;9.40;99.90;;;;;;5096093;28;20451;-84
2022/03/13 05:46:04;;;;;;;8.10;7.28;;;9.40;99.90;;;;;;5095947;28;20469;-84
2022/03/13 05:48:30;;;;;;;7.35;6.43;;;9.40;99.90;;;;;;5096437;28;20047;-84
2022/03/13 05:50:56;;;;;;;7.47;6.78;;;9.30;99.90;;;;;;5096580;28;20024;-84
2022/03/13 05:53:21;;;;;;;7.70;6.88;;;9.30;99.90;;;;;;5096323;28;20024;-84
2022/03/13 05:55:47;;;;;;;8.32;7.32;;;9.30;99.90;;;;;;5096655;28;20028;-84
2022/03/13 05:58:13;;;;;;;11.35;8.25;;;9.20;99.90;;;;;;5097505;28;20032;-83
2022/03/13 06:00:40;;;;;;;12.63;8.80;;;9.10;99.90;;;;;;5100038;28;20531;-84
2022/03/13 06:03:06;;;;;;;10.25;8.65;;;9.10;99.90;;;;;;5098080;28;20042;-85
2022/03/13 06:05:34;;;;;;;11.82;8.98;;;9.10;99.90;;;;;;5099532;28;20488;-84
2022/03/13 06:08:00;;;;;;;13.77;10.93;;;9.00;99.90;;;;;;5100871;28;20040;-84
2022/03/13 06:10:26;;;;;;;16.00;12.13;;;9.00;99.90;;;;;;5106668;28;20035;-84
2022/03/13 06:12:52;;;;;;;15.05;12.15;;;8.90;99.90;;;;;;5104925;28;20024;-84
2022/03/13 06:15:18;;;;;;;16.98;12.38;;;8.90;99.90;;;;;;5095047;28;20031;-84
2022/03/13 06:17:49;;;;;;;16.52;12.57;;;8.90;99.90;;;;;;5096141;28;20020;-85
2022/03/13 06:20:16;;;;;;;19.65;13.13;;;8.90;99.90;;;;;;5101959;28;20045;-84
2022/03/13 06:22:44;;;;;;;18.25;13.48;;;8.80;99.90;;;;;;5109956;28;20028;-85
2022/03/13 06:25:11;;;;;;;17.65;12.88;;;8.80;99.90;;;;;;5103994;28;20058;-85
2022/03/13 06:27:38;;;;;;;22.05;14.50;;;8.80;99.90;;;;;;5110024;28;20028;-85
2022/03/13 06:30:16;;;;;;;21.33;14.07;;;8.70;99.90;;;;;;5093736;28;20052;-85
2022/03/13 06:32:44;;;;;;;23.75;15.63;;;8.70;99.90;;;;;;5085042;28;20024;-86
2022/03/13 06:35:11;;;;;;;19.95;15.25;;;8.80;99.90;;;;;;5079204;28;20099;-85
2022/03/13 06:37:38;;;;;;;23.88;15.27;;;8.90;99.90;;;;;;5077814;28;20372;-85
2022/03/13 06:40:05;;;;;;;22.35;14.82;;;8.90;99.90;;;;;;5079011;28;20052;-85
2022/03/13 06:42:31;;;;;;;22.48;15.27;;;8.90;99.90;;;;;;5080049;28;20063;-85
2022/03/13 06:44:56;;;;;;;21.40;15.15;;;9.00;99.90;;;;;;5076297;28;20111;-85
2022/03/13 06:47:25;;;;;;;22.10;15.43;;;9.10;99.90;;;;;;5081857;28;20016;-85
2022/03/13 06:49:50;;;;;;;21.48;15.77;;;9.20;99.90;;;;;;5079162;28;20365;-85
2022/03/13 06:52:16;;;;;;;21.67;16.27;;;9.20;99.90;;;;;;5076059;28;20028;-85
2022/03/13 06:54:43;;;;;;;24.92;15.90;;;9.30;99.90;;;;;;5076234;28;20149;-85
2022/03/13 06:57:08;;;;;;;22.88;16.63;;;9.50;99.90;;;;;;5077485;28;20468;-85
2022/03/13 06:59:34;;;;;;;25.02;16.77;;;9.50;99.90;;;;;;5079294;28;20048;-85
2022/03/13 07:01:59;;;;;;;21.63;15.70;;;9.50;99.90;;;;;;5074577;28;20016;-85
2022/03/13 07:04:25;;;;;;;20.20;15.73;;;9.60;99.90;;;;;;5077058;28;20070;-85
2022/03/13 07:06:50;;;;;;;24.10;16.25;;;9.60;99.90;;;;;;5086673;28;20496;-85
2022/03/13 07:09:16;;;;;;;22.33;16.15;;;9.60;99.90;;;;;;5083181;28;20033;-84
2022/03/13 07:11:49;;;;;;;24.08;16.65;;;9.60;99.90;;;;;;5072931;28;20032;-85
2022/03/13 07:14:18;;;;;;;26.55;16.02;;;9.70;99.90;;;;;;5077443;28;20032;-85
2022/03/13 07:16:44;;;;;;;23.27;17.70;;;9.70;99.90;;;;;;5074247;28;20024;-84
2022/03/13 07:19:10;;;;;;;24.63;17.40;;;9.70;99.90;;;;;;5076346;28;20035;-85
2022/03/13 07:21:37;;;;;;;23.90;16.75;;;9.80;99.90;;;;;;5071718;28;20372;-85
2022/03/13 07:24:02;;;;;;;25.35;16.48;;;9.70;99.90;;;;;;5079009;28;20044;-85
2022/03/13 07:26:40;;;;;;;22.58;16.50;;;9.70;99.90;;;;;;5072060;28;20024;-85
2022/03/13 07:29:06;;;;;;;24.52;16.52;;;9.80;99.90;;;;;;5072028;28;20033;-85
2022/03/13 07:31:31;;;;;;;23.52;16.35;;;9.80;99.90;;;;;;5073596;28;20426;-85
2022/03/13 07:33:58;;;;;;;27.90;17.98;;;9.80;99.90;;;;;;5071487;28;20020;-85
2022/03/13 07:36:24;;;;;;;25.08;16.35;;;9.80;99.90;;;;;;5075741;28;20024;-85
2022/03/13 07:38:50;;;;;;;22.17;15.20;;;9.80;99.90;;;;;;5075787;28;20394;-85
2022/03/13 07:41:16;;;;;;;24.40;16.67;;;9.90;99.90;;;;;;5077643;28;20442;-84
2022/03/13 07:43:41;;;;;;;23.80;15.25;;;9.90;99.90;;;;;;5076827;28;20020;-85
2022/03/13 07:46:07;;;;;;;23.35;16.45;;;9.90;99.90;;;;;;5071893;28;20491;-84
2022/03/13 07:48:36;;;;;;;22.85;16.27;;;10.00;99.90;;;;;;5079362;28;20024;-84
2022/03/13 07:51:04;;;;;;;22.17;16.23;;;10.00;99.90;;;;;;5084529;28;20028;-85
2022/03/13 07:53:29;;;;;;;24.88;16.52;;;10.20;99.90;;;;;;5079564;28;20123;-84
2022/03/13 07:55:55;;;;;;;25.08;16.00;;;10.20;99.90;;;;;;5082313;28;20028;-85
2022/03/13 07:58:21;;;;;;;21.35;15.15;;;10.20;99.90;;;;;;5084798;28;20111;-85
2022/03/13 08:00:47;;;;;;;21.42;14.95;;;10.30;99.90;;;;;;5085910;28;20028;-85
2022/03/13 08:03:12;;;;;;;24.50;15.95;;;10.30;99.90;;;;;;5094321;28;20035;-84
2022/03/13 08:05:38;;;;;;;21.27;15.82;;;10.40;99.90;;;;;;5094479;28;20078;-85
2022/03/13 08:08:04;;;;;;;22.80;16.38;;;10.40;99.90;;;;;;5088091;28;20028;-86
2022/03/13 08:10:30;;;;;;;24.02;15.88;;;10.40;99.90;;;;;;5110539;28;20110;-86
2022/03/13 08:12:56;;;;;;;22.83;15.32;;;10.40;99.90;;;;;;5122416;28;20037;-86
2022/03/13 08:15:21;;;;;;;23.45;15.50;;;10.50;99.90;;;;;;5128703;28;20067;-85
2022/03/13 08:17:47;;;;;;;23.23;16.17;;;10.50;99.90;;;;;;5113821;28;20020;-85
2022/03/13 08:20:13;;;;;;;23.38;16.08;;;10.60;99.90;;;;;;5111941;28;20032;-85
2022/03/13 08:23:02;;;;;;;18.60;14.98;;;10.60;99.90;;;;;;5105608;28;20035;-84
2022/03/13 08:25:28;;;;;;;20.42;15.82;;;10.70;99.90;;;;;;5113136;28;20031;-84
2022/03/13 08:27:54;;;;;;;19.13;14.38;;;10.80;99.90;;;;;;5122659;28;20106;-82
2022/03/13 08:30:20;;;;;;;19.58;14.55;;;10.70;99.90;;;;;;5124126;28;20032;-83
2022/03/13 08:32:46;;;;;;;24.48;15.88;;;10.70;99.90;;;;;;5112607;28;20038;-82
2022/03/13 08:35:12;;;;;;;23.80;15.45;;;10.70;99.90;;;;;;5110865;28;20062;-75
2022/03/13 08:37:38;;;;;;;22.20;15.45;;;10.70;99.90;;;;;;5104530;28;20074;-75
2022/03/13 08:40:05;;;;;;;20.30;15.40;;;10.70;99.90;;;;;;5085556;28;20019;-74
2022/03/13 08:42:32;;;;;;;22.17;15.35;;;10.70;99.90;;;;;;5088151;28;20524;-75
2022/03/13 08:44:58;;;;;;;22.50;15.25;;;10.70;99.90;;;;;;5085646;28;20019;-73
2022/03/13 08:47:24;;;;;;;20.17;16.20;;;10.70;99.90;;;;;;5080876;28;20024;-75
2022/03/13 08:49:50;;;;;;;21.40;15.35;;;10.70;99.90;;;;;;5101214;28;20126;-75
2022/03/13 08:52:16;;;;;;;23.23;15.48;;;10.80;99.90;;;;;;5109869;28;20102;-76
2022/03/13 08:54:41;;;;;;;23.25;16.40;;;10.80;99.90;;;;;;5110738;28;20027;-76
2022/03/13 08:57:07;;;;;;;21.08;15.43;;;10.90;99.90;;;;;;5107713;28;20034;-76
2022/03/13 08:59:35;;;;;;;25.35;15.57;;;11.00;99.90;;;;;;5083659;28;20060;-77
2022/03/13 09:02:01;;;;;;;23.45;14.73;;;11.10;99.90;;;;;;5085844;28;20388;-77
2022/03/13 09:04:27;;;;;;;20.25;16.13;;;11.20;99.90;;;;;;5079541;28;20090;-79
2022/03/13 09:06:54;;;;;;;21.23;15.63;;;11.30;99.90;;;;;;5088858;28;20044;-77
2022/03/13 09:09:20;;;;;;;22.42;16.40;;;11.30;99.90;;;;;;5085150;28;20435;-77
2022/03/13 09:11:47;;;;;;;24.90;16.85;;;11.40;99.90;;;;;;5081531;28;20020;-78
2022/03/13 09:14:13;;;;;;;22.02;15.80;;;11.40;99.90;;;;;;5101403;28;20039;-79
2022/03/13 09:16:41;;;;;;;26.98;16.30;;;11.50;99.90;;;;;;5109482;28;20517;-78
2022/03/13 09:19:07;;;;;;;22.25;16.40;;;11.50;99.90;;;;;;5110439;28;20032;-76
2022/03/13 09:21:34;;;;;;;20.73;15.77;;;11.60;99.90;;;;;;5110392;28;20023;-78
2022/03/13 09:24:01;;;;;;;19.38;14.93;;;11.70;99.90;;;;;;5110188;28;20058;-81
2022/03/13 09:26:27;;;;;;;23.13;15.25;;;12.60;99.90;;;;;;5111088;28;20036;-83
2022/03/13 09:28:55;;;;;;;19.70;15.65;;;11.90;99.90;;;;;;5111241;28;20585;-82
2022/03/13 09:31:21;;;;;;;21.65;15.90;;;12.10;99.90;;;;;;5110032;28;20020;-78
2022/03/13 09:33:47;;;;;;;20.25;15.18;;;12.10;99.90;;;;;;5112145;28;20024;-83
2022/03/13 09:36:13;;;;;;;24.00;16.10;;;12.30;99.90;;;;;;5111325;28;20098;-84
2022/03/13 09:38:38;;;;;;;22.35;15.05;;;12.20;99.90;;;;;;5111239;28;20169;-84
2022/03/13 09:41:04;;;;;;;22.02;16.10;;;12.30;99.90;;;;;;5114500;28;20032;-78
2022/03/13 09:43:29;;;;;;;21.17;15.50;;;12.40;99.90;;;;;;5113369;28;20036;-78
2022/03/13 09:45:55;;;;;;;21.60;16.35;;;12.40;99.90;;;;;;5113555;28;20024;-77
2022/03/13 09:48:21;;;;;;;22.65;17.13;;;12.50;99.90;;;;;;5113682;28;20028;-79
2022/03/13 09:50:47;;;;;;;23.63;16.08;;;12.50;99.90;;;;;;5101899;28;20528;-78
2022/03/13 09:53:13;;;;;;;21.27;15.43;;;12.60;99.90;;;;;;5097365;28;20019;-79
2022/03/13 09:55:39;;;;;;;22.02;15.15;;;12.70;99.90;;;;;;5114123;28;20050;-78
2022/03/13 09:58:08;;;;;;;23.13;15.82;;;12.80;99.90;;;;;;5113700;28;20497;-79
2022/03/13 10:00:35;;;;;;;22.58;15.05;;;13.00;99.90;;;;;;5112998;28;20019;-79
2022/03/13 10:03:08;;;;;;;19.70;15.73;;;13.00;99.90;;;;;;5113991;28;20123;-79
2022/03/13 10:05:42;;;;;;;18.25;13.75;;;13.10;99.90;;;;;;5113716;28;20043;-78
2022/03/13 10:08:08;;;;;;;19.08;15.63;;;13.20;99.90;;;;;;5106479;28;20047;-78
2022/03/13 10:10:53;;;;;;;20.52;14.65;;;13.20;99.90;;;;;;5090205;28;20051;-78
2022/03/13 10:13:36;;;;;;;18.75;14.38;;;13.30;99.90;;;;;;5087701;28;20392;-79
2022/03/13 10:16:02;;;;;;;21.67;14.15;;;13.40;99.90;;;;;;5084168;28;20996;-79
2022/03/13 10:18:28;;;;;;;18.33;14.43;;;13.50;99.90;;;;;;5083351;28;20059;-78
2022/03/13 10:20:55;;;;;;;20.38;13.05;;;13.50;99.90;;;;;;5086611;28;20052;-78
2022/03/13 10:23:22;;;;;;;18.13;14.55;;;13.60;99.70;;;;;;5087059;28;20032;-79
2022/03/13 10:25:52;;;;;;;21.60;14.07;;;13.60;99.90;;;;;;5089189;28;20379;-78
2022/03/13 10:28:30;;;;;;;19.80;13.82;;;13.80;99.60;;;;;;5086005;28;20063;-80
2022/03/13 10:30:59;;;;;;;16.23;13.20;;;13.80;99.50;;;;;;5091837;28;20028;-77
2022/03/13 10:33:43;;;;;;;16.80;13.23;;;13.90;99.00;;;;;;5109481;28;20115;-77
2022/03/13 10:36:31;;;;;;;15.00;13.02;;;14.00;98.60;;;;;;5112685;28;20023;-78
2022/03/13 10:38:57;;;;;;;21.23;12.55;;;14.00;98.30;;;;;;5109778;28;20395;-78
2022/03/13 10:41:45;;;;;;;17.67;13.40;;;14.00;98.80;;;;;;5111980;28;20110;-77
2022/03/13 10:44:18;;;;;;;16.98;13.20;;;14.10;99.00;;;;;;5108444;28;20028;-78
2022/03/13 10:46:48;;;;;;;14.52;12.90;;;14.20;98.30;;;;;;5106281;28;20110;-78
2022/03/13 10:49:14;;;;;;;20.75;14.27;;;14.20;98.20;;;;;;5112096;28;20061;-77
2022/03/13 10:51:45;;;;;;;15.50;12.95;;;14.20;98.30;;;;;;5112187;28;20023;-78
2022/03/13 10:54:30;;;;;;;15.57;12.60;;;14.40;98.30;;;;;;5112577;28;20429;-78
2022/03/13 10:57:09;;;;;;;19.23;13.55;;;14.40;98.20;;;;;;5111964;28;20027;-77
2022/03/13 10:59:35;;;;;;;18.27;13.45;;;14.50;97.30;;;;;;5112464;28;20483;-77
2022/03/13 11:02:12;;;;;;;19.50;12.57;;;14.50;97.10;;;;;;5112677;28;20034;-77
2022/03/13 11:04:49;;;;;;;14.05;12.50;;;14.50;96.90;;;;;;5111796;28;20028;-77
2022/03/13 11:07:15;;;;;;;17.33;13.10;;;14.50;97.00;;;;;;5108997;28;20463;-77
2022/03/13 11:09:40;;;;;;;15.95;12.10;;;14.50;96.80;;;;;;5111992;28;20070;-77
2022/03/13 11:12:09;;;;;;;15.20;12.70;;;14.50;96.90;;;;;;5107807;28;20015;-78
2022/03/13 11:14:35;;;;;;;15.88;14.02;;;14.50;97.00;;;;;;5112398;28;20044;-77
2022/03/13 11:17:02;;;;;;;17.77;12.30;;;14.70;97.20;;;;;;5111285;28;20035;-77
2022/03/13 11:19:29;;;;;;;15.38;12.50;;;14.70;97.40;;;;;;5112295;28;20024;-77
2022/03/13 11:22:02;;;;;;;16.48;12.95;;;14.90;96.70;;;;;;5089776;28;20036;-77
2022/03/13 11:24:28;;;;;;;14.43;11.90;;;15.00;96.00;;;;;;5096935;28;20400;-77
2022/03/13 11:26:54;;;;;;;16.75;12.00;;;15.10;95.40;;;;;;5112479;28;20031;-78
2022/03/13 11:29:51;;;;;;;15.00;12.07;;;15.10;95.20;;;;;;5111964;28;20043;-77
2022/03/13 11:32:30;;;;;;;15.68;11.88;;;15.10;95.20;;;;;;5110256;28;20054;-78
2022/03/13 11:35:14;;;;;;;13.15;11.32;;;15.10;95.70;;;;;;5112338;28;20114;-77
2022/03/13 11:37:42;;;;;;;12.02;10.80;;;15.10;95.20;;;;;;5112368;28;20083;-78
2022/03/13 11:40:10;;;;;;;14.57;11.75;;;15.20;95.00;;;;;;5113901;28;20115;-78
2022/03/13 11:42:51;;;;;;;14.35;11.25;;;15.30;95.00;;;;;;5112408;28;20020;-77
2022/03/13 11:45:29;;;;;;;11.63;10.40;;;15.40;95.30;;;;;;5111147;28;20030;-77
2022/03/13 11:48:19;;;;;;;12.15;10.82;;;15.50;94.70;;;;;;5111589;28;20020;-77
2022/03/13 11:50:54;;;;;;;12.07;9.98;;;15.60;94.40;;;;;;5105414;28;20119;-78
2022/03/13 11:53:44;;;;;;;12.65;9.75;;;15.70;94.50;;;;;;5110809;28;20024;-77
2022/03/13 11:56:25;;;;;;;11.13;9.90;;;15.80;94.50;;;;;;5108277;28;20024;-77
2022/03/13 11:59:15;;;;;;;11.95;10.00;;;15.90;93.90;;;;;;5108843;28;20023;-78
2022/03/13 12:01:42;;;;;;;12.00;10.73;;;15.90;93.90;;;;;;5111092;28;20027;-77
2022/03/13 12:04:08;;;;;;;11.90;10.05;;;16.00;93.80;;;;;;5108531;28;20031;-78
2022/03/13 12:06:41;;;;;;;10.57;9.57;;;16.00;93.70;;;;;;5081939;28;20036;-78
2022/03/13 12:09:12;;;;;;;11.15;9.77;;;16.10;93.20;;;;;;5083807;28;20176;-77
2022/03/13 12:11:44;;;;;;;10.30;8.68;;;16.10;93.40;;;;;;5096346;28;20031;-77
2022/03/13 12:14:12;;;;;;;8.35;7.55;;;16.20;93.20;;;;;;5098737;28;20027;-76
2022/03/13 12:16:40;;;;;;;6.60;5.97;;;16.20;93.00;;;;;;5093941;28;20444;-76
2022/03/13 12:19:07;;;;;;;7.03;6.32;;;16.30;93.00;;;;;;5095052;28;20553;-77
2022/03/13 12:21:33;;;;;;;7.10;6.22;;;16.40;92.20;;;;;;5098809;28;21263;-78
2022/03/13 12:24:08;;;;;;;8.38;5.97;;;16.50;92.10;;;;;;5095778;28;20099;-77
2022/03/13 12:26:35;;;;;;;7.40;6.70;;;16.60;91.10;;;;;;5093802;28;20150;-80
2022/03/13 12:29:01;;;;;;;7.57;6.32;;;16.70;91.30;;;;;;5098799;28;20502;-80
2022/03/13 12:31:27;;;;;;;7.47;6.68;;;16.80;91.20;;;;;;5096055;28;20024;-79
2022/03/13 12:33:54;;;;;;;6.43;5.50;;;16.90;91.00;;;;;;5094853;28;20507;-80
2022/03/13 12:36:23;;;;;;;6.50;5.90;;;16.90;90.80;;;;;;5099851;28;20123;-76
2022/03/13 12:38:51;;;;;;;6.30;5.70;;;17.00;90.30;;;;;;5096439;28;20034;-79
2022/03/13 12:41:16;;;;;;;7.05;5.28;;;17.10;90.00;;;;;;5092093;28;20030;-79
2022/03/13 12:44:01;;;;;;;5.38;4.88;;;17.10;89.20;;;;;;5099396;28;20024;-78
2022/03/13 12:46:29;;;;;;;6.22;4.40;;;17.30;88.90;;;;;;5093848;28;20035;-78